Time;durP1;ratioP1;P1;durP2;ratioP2;P2;SDS_P1;SDS_P2;PMS_P1;PMS_P2;Temp;Humidity;BMP_temperature;BMP_pressure;BME280_temperature;BME280_humidity;BME280_pressure;Samples;Min_cycle;Max_cycle;Signal;HPM_P1;HPM_P2
2022/12/22 03:26:21;;;;;;;1.70;1.00;;;;;;;;;;5075163;28;20240;-89
2022/12/22 03:28:48;;;;;;;1.80;1.00;;;;;;;;;;5075004;28;20237;-89
2022/12/22 03:31:15;;;;;;;1.13;0.73;;;;;;;;;;5074110;28;20195;-88
2022/12/22 03:33:44;;;;;;;2.23;0.90;;;;;;;;;;5075868;28;20205;-89
2022/12/22 03:36:12;;;;;;;3.03;0.70;;;;;;;;;;5074769;28;20199;-89
2022/12/22 03:38:39;;;;;;;2.47;0.80;;;;;;;;;;5075960;28;20207;-89
2022/12/22 03:41:06;;;;;;;3.53;0.60;;;;;;;;;;5075457;28;20230;-89
2022/12/22 03:46:30;;;;;;;0.40;0.40;;;;;;;;;;5075690;28;20218;-89
2022/12/22 03:49:11;;;;;;;1.27;0.60;;;;;;;;;;5074953;28;20228;-88
2022/12/22 03:51:39;;;;;;;1.53;0.50;;;;;;;;;;5074359;28;20203;-88
2022/12/22 03:54:06;;;;;;;0.97;0.43;;;;;;;;;;5071044;28;20207;-88
2022/12/22 03:56:33;;;;;;;2.33;0.53;;;;;;;;;;5075281;28;20236;-89
2022/12/22 03:59:01;;;;;;;0.60;0.60;;;;;;;;;;5074596;28;20213;-89
2022/12/22 04:01:28;;;;;;;0.70;0.43;;;;;;;;;;5071447;28;20211;-89
2022/12/22 04:03:55;;;;;;;0.80;0.37;;;;;;;;;;5082118;28;20253;-89
2022/12/22 04:06:24;;;;;;;1.50;0.50;;;;;;;;;;5069227;28;20199;-90
2022/12/22 04:08:51;;;;;;;0.37;0.30;;;;;;;;;;5075320;28;20202;-89
2022/12/22 04:14:04;;;;;;;0.70;0.47;;;;;;;;;;5072902;28;20193;-88
2022/12/22 04:16:31;;;;;;;1.23;0.57;;;;;;;;;;5062782;28;20210;-89
2022/12/22 04:18:58;;;;;;;0.50;0.50;;;;;;;;;;5071262;28;20245;-89
2022/12/22 04:21:27;;;;;;;2.60;0.60;;;;;;;;;;5073503;28;20232;-90
2022/12/22 04:23:54;;;;;;;0.67;0.67;;;;;;;;;;5067790;28;20286;-89
2022/12/22 04:26:22;;;;;;;1.27;0.70;;;;;;;;;;5073584;28;20199;-90
2022/12/22 04:28:49;;;;;;;0.90;0.70;;;;;;;;;;5074722;28;20230;-90
2022/12/22 04:31:17;;;;;;;0.97;0.67;;;;;;;;;;5068374;28;20294;-89
2022/12/22 04:33:44;;;;;;;1.97;0.93;;;;;;;;;;5074556;28;20213;-90
2022/12/22 04:36:11;;;;;;;1.23;0.90;;;;;;;;;;5073574;28;20202;-90
2022/12/22 04:38:40;;;;;;;2.00;0.93;;;;;;;;;;5073545;28;20209;-89
2022/12/22 04:41:08;;;;;;;3.10;1.00;;;;;;;;;;5072449;28;20301;-90
2022/12/22 04:43:35;;;;;;;3.77;1.10;;;;;;;;;;5074416;28;20205;-90
2022/12/22 04:46:03;;;;;;;2.93;1.10;;;;;;;;;;5071623;28;20199;-89
2022/12/22 04:48:30;;;;;;;3.33;0.90;;;;;;;;;;5072486;28;20198;-89
2022/12/22 04:50:58;;;;;;;3.50;0.93;;;;;;;;;;5070004;28;20199;-89
2022/12/22 04:53:28;;;;;;;3.30;0.90;;;;;;;;;;5070891;28;20253;-88
2022/12/22 04:55:59;;;;;;;1.70;0.87;;;;;;;;;;5073517;28;20210;-89
2022/12/22 04:58:26;;;;;;;1.03;0.70;;;;;;;;;;5073558;28;20230;-89
2022/12/22 05:00:53;;;;;;;1.17;0.70;;;;;;;;;;5073060;28;20206;-90
2022/12/22 05:03:21;;;;;;;1.77;0.90;;;;;;;;;;5071889;28;20187;-90
2022/12/22 05:05:48;;;;;;;2.60;0.80;;;;;;;;;;5062211;28;20294;-89
2022/12/22 05:08:15;;;;;;;1.87;0.50;;;;;;;;;;5069506;28;20187;-90
2022/12/22 05:10:43;;;;;;;2.93;0.70;;;;;;;;;;5062823;28;20229;-89
2022/12/22 05:13:11;;;;;;;1.30;0.70;;;;;;;;;;5070689;28;20202;-89
2022/12/22 05:15:39;;;;;;;2.30;0.70;;;;;;;;;;5084562;28;20270;-87
2022/12/22 05:18:06;;;;;;;2.13;1.90;;;;;;;;;;5067300;28;20197;-89
2022/12/22 05:20:36;;;;;;;1.83;0.77;;;;;;;;;;5071922;28;20219;-88
2022/12/22 05:23:03;;;;;;;1.83;0.63;;;;;;;;;;5071916;28;20199;-88
2022/12/22 05:25:30;;;;;;;2.83;0.80;;;;;;;;;;5071579;28;20195;-88
2022/12/22 05:27:58;;;;;;;1.83;0.87;;;;;;;;;;5070811;28;20199;-89
2022/12/22 05:30:26;;;;;;;1.40;0.90;;;;;;;;;;5073066;28;20265;-89
2022/12/22 05:32:53;;;;;;;4.07;0.90;;;;;;;;;;5065755;28;20203;-89
2022/12/22 05:35:21;;;;;;;1.93;0.90;;;;;;;;;;5071632;28;20285;-88
2022/12/22 05:37:48;;;;;;;2.33;0.90;;;;;;;;;;5067881;28;20199;-88
2022/12/22 05:40:15;;;;;;;2.77;1.00;;;;;;;;;;5069290;28;20210;-89
2022/12/22 05:42:42;;;;;;;4.60;1.10;;;;;;;;;;5065633;28;20195;-88
2022/12/22 05:45:12;;;;;;;2.87;1.00;;;;;;;;;;5072860;28;20195;-91
2022/12/22 05:47:41;;;;;;;5.53;1.10;;;;;;;;;;5068607;28;20202;-93
2022/12/22 05:50:09;;;;;;;3.67;1.27;;;;;;;;;;5062952;28;20197;-92
2022/12/22 05:52:37;;;;;;;3.10;1.10;;;;;;;;;;5067731;28;20203;-95
2022/12/22 05:55:04;;;;;;;4.20;1.30;;;;;;;;;;5068242;28;20286;-92
2022/12/22 05:57:32;;;;;;;2.93;0.90;;;;;;;;;;5067672;28;20199;-91
2022/12/22 05:59:59;;;;;;;5.17;1.27;;;;;;;;;;5069681;28;20202;-88
2022/12/22 06:02:27;;;;;;;4.63;1.30;;;;;;;;;;5065280;28;20195;-90
2022/12/22 06:04:55;;;;;;;4.10;1.20;;;;;;;;;;5061957;28;20290;-91
2022/12/22 06:07:23;;;;;;;2.57;1.10;;;;;;;;;;5072599;28;20230;-93
2022/12/22 06:09:50;;;;;;;7.47;1.53;;;;;;;;;;5069467;28;20209;-92
2022/12/22 06:12:17;;;;;;;5.77;1.23;;;;;;;;;;5066935;28;20194;-90
2022/12/22 06:14:44;;;;;;;3.70;1.37;;;;;;;;;;5071175;28;20563;-89
2022/12/22 06:17:11;;;;;;;4.07;1.20;;;;;;;;;;5074339;28;20197;-90
2022/12/22 06:19:39;;;;;;;4.60;1.53;;;;;;;;;;5070903;28;20207;-90
2022/12/22 06:22:07;;;;;;;3.77;0.90;;;;;;;;;;5064437;28;20226;-92
2022/12/22 06:24:35;;;;;;;6.33;1.47;;;;;;;;;;5069085;28;20315;-92
2022/12/22 06:27:02;;;;;;;3.27;1.07;;;;;;;;;;5076799;28;20198;-92
2022/12/22 06:29:29;;;;;;;4.77;1.20;;;;;;;;;;5075368;28;20230;-92
2022/12/22 06:31:57;;;;;;;3.50;1.03;;;;;;;;;;5074977;28;20213;-91
2022/12/22 06:34:24;;;;;;;3.20;1.20;;;;;;;;;;5077430;28;20198;-94
2022/12/22 06:36:51;;;;;;;5.37;1.57;;;;;;;;;;5076285;28;20210;-94
2022/12/22 06:39:21;;;;;;;4.63;1.30;;;;;;;;;;5077700;28;20199;-96
2022/12/22 06:44:33;;;;;;;5.23;1.20;;;;;;;;;;5073787;28;20221;-94
2022/12/22 06:47:00;;;;;;;3.27;1.00;;;;;;;;;;5060825;28;20215;-93
2022/12/22 06:49:28;;;;;;;5.47;1.20;;;;;;;;;;5074312;28;20198;-91
2022/12/22 06:51:55;;;;;;;3.60;0.90;;;;;;;;;;5077596;28;20210;-95
2022/12/22 06:54:24;;;;;;;3.10;0.93;;;;;;;;;;5078340;28;20286;-93
2022/12/22 06:56:51;;;;;;;5.70;1.70;;;;;;;;;;5077334;28;20275;-96
2022/12/22 06:59:18;;;;;;;3.77;1.20;;;;;;;;;;5073922;28;20281;-91
2022/12/22 07:01:46;;;;;;;3.63;1.17;;;;;;;;;;5074010;28;20313;-92
2022/12/22 07:04:18;;;;;;;3.03;1.40;;;;;;;;;;5075790;28;20286;-91
2022/12/22 07:06:45;;;;;;;4.33;1.50;;;;;;;;;;5074526;28;20207;-91
2022/12/22 07:09:13;;;;;;;5.67;1.50;;;;;;;;;;5073879;28;20203;-89
2022/12/22 07:11:42;;;;;;;4.27;1.37;;;;;;;;;;5061748;28;20323;-92
2022/12/22 07:14:10;;;;;;;4.80;1.50;;;;;;;;;;5073144;28;20199;-94
2022/12/22 07:16:38;;;;;;;6.03;1.60;;;;;;;;;;5073314;28;20286;-92
2022/12/22 07:19:05;;;;;;;6.23;1.53;;;;;;;;;;5067001;28;20214;-93
2022/12/22 07:21:32;;;;;;;3.80;1.63;;;;;;;;;;5070901;28;20294;-92
2022/12/22 07:24:00;;;;;;;8.13;2.10;;;;;;;;;;5065483;28;20298;-86
2022/12/22 07:26:27;;;;;;;5.03;1.77;;;;;;;;;;5076488;28;20195;-92
2022/12/22 07:28:56;;;;;;;8.17;1.80;;;;;;;;;;5073543;28;20266;-93
2022/12/22 07:31:23;;;;;;;5.43;1.70;;;;;;;;;;5073057;28;20209;-93
2022/12/22 07:33:50;;;;;;;9.00;2.03;;;;;;;;;;5073720;28;20219;-93
2022/12/22 07:36:19;;;;;;;7.60;2.03;;;;;;;;;;5071845;28;20221;-92
2022/12/22 07:38:47;;;;;;;6.50;1.60;;;;;;;;;;5063001;28;20226;-91
2022/12/22 07:44:02;;;;;;;7.63;1.70;;;;;;;;;;5070742;28;20194;-92
2022/12/22 07:46:31;;;;;;;9.10;1.53;;;;;;;;;;5074322;28;20286;-90
2022/12/22 07:51:43;;;;;;;6.87;1.57;;;;;;;;;;5072707;28;20289;-90
2022/12/22 07:54:11;;;;;;;6.70;1.50;;;;;;;;;;5074822;28;20209;-92
2022/12/22 07:56:39;;;;;;;5.53;1.87;;;;;;;;;;5068339;28;20200;-91
2022/12/22 07:59:08;;;;;;;6.93;1.67;;;;;;;;;;5071428;28;20217;-91
2022/12/22 08:01:36;;;;;;;7.67;1.57;;;;;;;;;;5069970;28;20215;-91
2022/12/22 08:04:03;;;;;;;3.13;1.27;;;;;;;;;;5074292;28;20201;-91
2022/12/22 08:06:32;;;;;;;7.17;1.63;;;;;;;;;;5075382;28;20203;-90
2022/12/22 08:09:00;;;;;;;6.17;1.37;;;;;;;;;;5071784;28;20202;-91
2022/12/22 08:11:27;;;;;;;5.30;1.50;;;;;;;;;;5062141;28;20206;-91
2022/12/22 08:13:54;;;;;;;5.53;1.53;;;;;;;;;;5072309;28;20282;-92
2022/12/22 08:16:23;;;;;;;6.10;1.40;;;;;;;;;;5074708;28;20203;-92
2022/12/22 08:18:50;;;;;;;3.37;1.40;;;;;;;;;;5069720;28;20258;-91
2022/12/22 08:21:18;;;;;;;5.30;1.40;;;;;;;;;;5063090;28;20223;-91
2022/12/22 08:23:45;;;;;;;5.67;1.30;;;;;;;;;;5070791;28;20214;-90
2022/12/22 08:26:15;;;;;;;6.90;1.60;;;;;;;;;;5064107;28;20198;-92
2022/12/22 08:28:45;;;;;;;3.83;1.23;;;;;;;;;;5060307;28;20318;-89
2022/12/22 08:31:13;;;;;;;5.13;1.60;;;;;;;;;;5071659;28;20207;-91
2022/12/22 08:33:41;;;;;;;5.40;1.23;;;;;;;;;;5064838;28;20267;-91
2022/12/22 08:36:10;;;;;;;2.57;1.00;;;;;;;;;;5066842;28;20199;-92
2022/12/22 08:38:39;;;;;;;3.83;1.23;;;;;;;;;;5069641;28;20214;-91
2022/12/22 08:41:07;;;;;;;4.70;1.53;;;;;;;;;;5073560;28;20230;-92
2022/12/22 08:43:35;;;;;;;8.80;1.57;;;;;;;;;;5063845;28;20233;-91
2022/12/22 08:46:02;;;;;;;5.43;1.53;;;;;;;;;;5072081;28;20199;-91
2022/12/22 08:48:29;;;;;;;3.03;1.20;;;;;;;;;;5075102;28;20337;-93
2022/12/22 08:50:58;;;;;;;5.17;1.30;;;;;;;;;;5074430;28;20194;-91
2022/12/22 08:53:26;;;;;;;3.37;1.30;;;;;;;;;;5072213;28;20286;-88
2022/12/22 08:55:53;;;;;;;4.10;1.43;;;;;;;;;;5067102;28;20226;-87
2022/12/22 08:58:20;;;;;;;3.73;0.97;;;;;;;;;;5070705;28;20241;-92
2022/12/22 09:00:48;;;;;;;1.00;0.60;;;;;;;;;;5067710;28;20263;-93
2022/12/22 09:03:15;;;;;;;2.37;0.60;;;;;;;;;;5067925;28;20262;-91
2022/12/22 09:05:42;;;;;;;0.70;0.43;;;;;;;;;;5071330;28;20201;-92
2022/12/22 09:08:11;;;;;;;0.87;0.43;;;;;;;;;;5064314;28;20274;-88
2022/12/22 09:10:38;;;;;;;1.73;0.53;;;;;;;;;;5062977;28;20222;-92
2022/12/22 09:13:05;;;;;;;0.57;0.53;;;;;;;;;;5076161;28;20234;-92
2022/12/22 09:15:33;;;;;;;1.27;0.50;;;;;;;;;;5074042;28;20230;-92
2022/12/22 09:18:00;;;;;;;0.80;0.40;;;;;;;;;;5074417;28;20282;-92
2022/12/22 09:20:27;;;;;;;0.93;0.53;;;;;;;;;;5066661;28;20194;-91
2022/12/22 09:22:54;;;;;;;0.40;0.30;;;;;;;;;;5066017;28;20310;-91
2022/12/22 09:25:23;;;;;;;0.57;0.40;;;;;;;;;;5068608;28;20195;-92
2022/12/22 09:27:50;;;;;;;0.53;0.47;;;;;;;;;;5072944;28;20351;-91
2022/12/22 09:30:18;;;;;;;2.73;1.07;;;;;;;;;;5073143;28;20238;-93
2022/12/22 09:32:45;;;;;;;2.10;1.60;;;;;;;;;;5059078;28;20294;-92
2022/12/22 09:35:13;;;;;;;0.50;0.50;;;;;;;;;;5071999;28;20202;-92
2022/12/22 09:37:40;;;;;;;0.67;0.50;;;;;;;;;;5075706;28;20230;-93
2022/12/22 09:40:08;;;;;;;1.73;0.60;;;;;;;;;;5074002;28;20198;-93
2022/12/22 09:42:38;;;;;;;2.07;0.90;;;;;;;;;;5072235;28;20216;-93
2022/12/22 09:45:12;;;;;;;1.87;0.63;;;;;;;;;;5068722;28;20194;-92
2022/12/22 09:47:40;;;;;;;0.70;0.70;;;;;;;;;;5068964;28;20266;-92
2022/12/22 09:50:09;;;;;;;0.50;0.50;;;;;;;;;;5074027;28;20197;-91
2022/12/22 09:52:43;;;;;;;1.47;0.73;;;;;;;;;;5065805;28;20222;-91
2022/12/22 09:55:14;;;;;;;0.50;0.50;;;;;;;;;;5069300;28;20256;-92
2022/12/22 09:57:43;;;;;;;1.40;0.43;;;;;;;;;;5070522;28;20286;-89
2022/12/22 10:00:14;;;;;;;0.93;0.40;;;;;;;;;;5069623;28;20205;-95
2022/12/22 10:02:45;;;;;;;0.50;0.50;;;;;;;;;;5070531;28;20226;-95
2022/12/22 10:05:25;;;;;;;1.00;0.50;;;;;;;;;;5071457;28;20289;-94
2022/12/22 10:07:52;;;;;;;1.00;0.60;;;;;;;;;;5073388;28;20199;-91
2022/12/22 10:10:23;;;;;;;0.30;0.30;;;;;;;;;;5068018;28;20203;-92
2022/12/22 10:12:52;;;;;;;1.57;0.53;;;;;;;;;;5072735;28;20211;-92
2022/12/22 10:15:20;;;;;;;0.50;0.30;;;;;;;;;;5068007;28;20203;-93
2022/12/22 10:17:47;;;;;;;3.30;0.40;;;;;;;;;;5073243;28;20209;-93
2022/12/22 10:20:24;;;;;;;0.60;0.60;;;;;;;;;;5074499;28;20199;-93
2022/12/22 10:22:53;;;;;;;0.33;0.30;;;;;;;;;;5074026;28;20301;-94
2022/12/22 10:25:31;;;;;;;0.43;0.30;;;;;;;;;;5067781;28;20204;-93
2022/12/22 10:28:02;;;;;;;1.13;0.33;;;;;;;;;;5070525;28;20222;-90
2022/12/22 10:30:31;;;;;;;0.23;0.23;;;;;;;;;;5074021;28;20296;-90
2022/12/22 10:33:07;;;;;;;0.33;0.33;;;;;;;;;;5061356;28;20377;-91
2022/12/22 10:35:45;;;;;;;0.30;0.30;;;;;;;;;;5067028;28;20207;-95
2022/12/22 10:38:18;;;;;;;0.57;0.30;;;;;;;;;;5081940;28;20247;-94
2022/12/22 10:40:47;;;;;;;0.30;0.30;;;;;;;;;;5074292;28;20267;-94
2022/12/22 10:43:20;;;;;;;0.30;0.30;;;;;;;;;;5072272;28;20231;-91
2022/12/22 10:45:48;;;;;;;0.40;0.30;;;;;;;;;;5073128;28;20260;-93
2022/12/22 10:48:16;;;;;;;0.97;0.30;;;;;;;;;;5067655;28;20203;-94
2022/12/22 10:50:48;;;;;;;0.33;0.30;;;;;;;;;;5058505;28;20195;-91
2022/12/22 10:53:15;;;;;;;0.30;0.30;;;;;;;;;;5061125;28;20211;-90
2022/12/22 10:55:43;;;;;;;0.60;0.60;;;;;;;;;;5074512;28;20287;-91
2022/12/22 10:58:17;;;;;;;1.17;0.60;;;;;;;;;;5072255;28;20225;-91
2022/12/22 11:01:00;;;;;;;0.53;0.53;;;;;;;;;;5062585;28;20262;-93
2022/12/22 11:03:30;;;;;;;0.30;0.30;;;;;;;;;;5066415;28;20218;-91
2022/12/22 11:05:58;;;;;;;0.63;0.40;;;;;;;;;;5072348;28;20187;-94
2022/12/22 11:08:26;;;;;;;0.10;0.10;;;;;;;;;;5071470;28;20276;-90
2022/12/22 11:10:56;;;;;;;0.00;0.00;;;;;;;;;;5076236;28;20200;-94
2022/12/22 11:13:40;;;;;;;0.43;0.37;;;;;;;;;;5065418;28;20191;-92
2022/12/22 11:16:19;;;;;;;0.20;0.20;;;;;;;;;;5095279;28;20254;-93
2022/12/22 11:18:53;;;;;;;0.30;0.30;;;;;;;;;;5078152;28;20218;-90
2022/12/22 11:21:21;;;;;;;0.40;0.40;;;;;;;;;;5074368;28;20282;-90
2022/12/22 11:23:52;;;;;;;0.40;0.40;;;;;;;;;;5070916;28;20229;-92
2022/12/22 11:26:24;;;;;;;0.40;0.40;;;;;;;;;;5070144;28;20203;-91
2022/12/22 11:29:06;;;;;;;0.67;0.40;;;;;;;;;;5086529;28;20321;-93
2022/12/22 11:31:45;;;;;;;0.40;0.40;;;;;;;;;;5077136;28;20245;-92
2022/12/22 11:34:19;;;;;;;0.80;0.50;;;;;;;;;;5078412;28;20194;-91
2022/12/22 11:36:53;;;;;;;0.97;0.90;;;;;;;;;;5073988;28;20224;-93
2022/12/22 11:39:29;;;;;;;1.53;0.80;;;;;;;;;;5073175;28;20198;-94
2022/12/22 11:42:01;;;;;;;0.87;0.60;;;;;;;;;;5064634;28;20261;-95
2022/12/22 11:44:38;;;;;;;0.80;0.80;;;;;;;;;;5071384;28;20287;-94
2022/12/22 11:47:13;;;;;;;1.23;0.80;;;;;;;;;;5069470;28;20270;-94
2022/12/22 11:49:46;;;;;;;1.60;0.80;;;;;;;;;;5068122;28;20211;-90
2022/12/22 11:52:24;;;;;;;0.60;0.60;;;;;;;;;;5067853;28;20195;-89
2022/12/22 11:55:12;;;;;;;0.70;0.70;;;;;;;;;;5069683;28;20274;-88
2022/12/22 11:57:44;;;;;;;0.73;0.73;;;;;;;;;;5071552;28;20218;-87
2022/12/22 12:00:13;;;;;;;0.47;0.47;;;;;;;;;;5066824;28;20199;-86
2022/12/22 12:02:58;;;;;;;0.50;0.40;;;;;;;;;;5066295;28;20241;-87
2022/12/22 12:05:35;;;;;;;0.53;0.53;;;;;;;;;;5063420;28;20219;-88
2022/12/22 12:08:06;;;;;;;0.30;0.30;;;;;;;;;;5068086;28;20250;-89
2022/12/22 12:10:35;;;;;;;0.40;0.40;;;;;;;;;;5068789;28;20205;-89
2022/12/22 12:13:08;;;;;;;0.30;0.30;;;;;;;;;;5068903;28;20201;-90
2022/12/22 12:15:37;;;;;;;0.20;0.20;;;;;;;;;;5068863;28;20191;-88
2022/12/22 12:18:26;;;;;;;0.40;0.40;;;;;;;;;;5070321;28;20207;-87
2022/12/22 12:21:11;;;;;;;0.87;0.50;;;;;;;;;;5059678;28;20203;-89
2022/12/22 12:23:56;;;;;;;0.30;0.30;;;;;;;;;;5068799;28;20206;-91
2022/12/22 12:26:25;;;;;;;0.50;0.50;;;;;;;;;;5068668;28;20225;-88
2022/12/22 12:28:58;;;;;;;0.30;0.30;;;;;;;;;;5069651;28;20230;-88
2022/12/22 12:31:29;;;;;;;0.67;0.57;;;;;;;;;;5061405;28;20191;-88
2022/12/22 12:33:59;;;;;;;0.40;0.40;;;;;;;;;;5068924;28;20262;-88
2022/12/22 12:36:32;;;;;;;0.53;0.40;;;;;;;;;;5067273;28;20214;-89
2022/12/22 12:39:04;;;;;;;0.33;0.33;;;;;;;;;;5073575;28;20194;-87
2022/12/22 12:41:38;;;;;;;0.83;0.50;;;;;;;;;;5055966;28;20333;-90
2022/12/22 12:44:06;;;;;;;0.30;0.30;;;;;;;;;;5068705;28;20233;-90
2022/12/22 12:46:52;;;;;;;0.30;0.30;;;;;;;;;;5074743;28;20278;-89
2022/12/22 12:49:39;;;;;;;1.13;0.40;;;;;;;;;;5067383;28;20202;-90
2022/12/22 12:52:07;;;;;;;0.33;0.33;;;;;;;;;;5064631;28;20199;-88
2022/12/22 12:54:39;;;;;;;1.17;0.40;;;;;;;;;;5064206;28;20261;-89
2022/12/22 12:57:22;;;;;;;0.20;0.20;;;;;;;;;;5061470;28;20203;-90
2022/12/22 12:59:50;;;;;;;0.30;0.30;;;;;;;;;;5066725;28;20203;-90
2022/12/22 13:02:48;;;;;;;0.40;0.40;;;;;;;;;;5066152;28;20278;-89
2022/12/22 13:05:35;;;;;;;0.37;0.37;;;;;;;;;;5007667;28;20197;-88
2022/12/22 13:08:23;;;;;;;0.60;0.50;;;;;;;;;;5063248;28;20206;-90
2022/12/22 13:11:24;;;;;;;2.30;0.43;;;;;;;;;;5066582;28;20206;-89
2022/12/22 13:13:53;;;;;;;0.33;0.33;;;;;;;;;;5069424;28;20258;-89
2022/12/22 13:16:26;;;;;;;0.40;0.33;;;;;;;;;;5064408;28;20200;-88
2022/12/22 13:18:57;;;;;;;0.37;0.33;;;;;;;;;;5070230;28;20206;-88
2022/12/22 13:21:26;;;;;;;0.30;0.30;;;;;;;;;;5071375;28;20195;-89
2022/12/22 13:23:57;;;;;;;0.53;0.47;;;;;;;;;;5068654;28;20222;-88
2022/12/22 13:26:26;;;;;;;0.40;0.40;;;;;;;;;;5065457;28;20195;-90
2022/12/22 13:28:57;;;;;;;0.40;0.30;;;;;;;;;;5066366;28;20231;-87
2022/12/22 13:31:29;;;;;;;0.83;0.40;;;;;;;;;;5069023;28;20198;-87
2022/12/22 13:34:04;;;;;;;0.60;0.60;;;;;;;;;;5064658;28;20211;-88
2022/12/22 13:36:32;;;;;;;0.50;0.50;;;;;;;;;;5062253;28;20198;-90
2022/12/22 13:39:00;;;;;;;1.20;0.87;;;;;;;;;;5068386;28;20198;-90
2022/12/22 13:41:29;;;;;;;1.27;0.60;;;;;;;;;;5069874;28;20195;-88
2022/12/22 13:44:00;;;;;;;1.80;0.67;;;;;;;;;;5069699;28;20295;-87
2022/12/22 13:46:27;;;;;;;0.60;0.60;;;;;;;;;;5062863;28;20199;-86
2022/12/22 13:48:56;;;;;;;0.63;0.27;;;;;;;;;;5073520;28;20198;-85
2022/12/22 13:51:25;;;;;;;0.50;0.50;;;;;;;;;;5072233;28;20199;-87
2022/12/22 13:53:53;;;;;;;0.73;0.50;;;;;;;;;;5070638;28;20199;-88
2022/12/22 13:56:22;;;;;;;0.40;0.40;;;;;;;;;;5070310;28;20187;-87
2022/12/22 13:58:52;;;;;;;0.53;0.50;;;;;;;;;;5062918;28;20255;-89
2022/12/22 14:01:21;;;;;;;0.50;0.50;;;;;;;;;;5061838;28;20325;-88
2022/12/22 14:03:49;;;;;;;1.10;0.50;;;;;;;;;;5066134;28;20242;-88
2022/12/22 14:06:27;;;;;;;0.60;0.60;;;;;;;;;;5064328;28;20198;-89
2022/12/22 14:08:55;;;;;;;0.67;0.30;;;;;;;;;;5064715;28;20289;-87
2022/12/22 14:11:22;;;;;;;0.70;0.70;;;;;;;;;;5065844;28;20210;-89
2022/12/22 14:13:49;;;;;;;1.17;0.63;;;;;;;;;;5063188;28;20223;-89
2022/12/22 14:16:16;;;;;;;0.53;0.53;;;;;;;;;;5065165;28;20243;-89
2022/12/22 14:18:45;;;;;;;0.57;0.57;;;;;;;;;;5059770;28;20195;-88
2022/12/22 14:21:13;;;;;;;0.87;0.70;;;;;;;;;;5066355;28;20221;-88
2022/12/22 14:23:42;;;;;;;2.00;0.97;;;;;;;;;;5066111;28;20276;-90
2022/12/22 14:26:13;;;;;;;0.83;0.83;;;;;;;;;;5063076;28;20248;-88
2022/12/22 14:28:48;;;;;;;0.80;0.80;;;;;;;;;;5068125;28;20219;-89
2022/12/22 14:31:16;;;;;;;0.90;0.90;;;;;;;;;;5058820;28;20203;-92
2022/12/22 14:33:52;;;;;;;0.80;0.80;;;;;;;;;;5063044;28;20334;-93
2022/12/22 14:36:22;;;;;;;1.33;0.90;;;;;;;;;;5064058;28;20198;-92
2022/12/22 14:38:50;;;;;;;1.30;0.90;;;;;;;;;;5067638;28;20199;-90
2022/12/22 14:44:01;;;;;;;2.53;1.10;;;;;;;;;;5064803;28;20218;-87
2022/12/22 14:46:29;;;;;;;3.33;1.03;;;;;;;;;;5076686;28;20219;-90
2022/12/22 14:48:58;;;;;;;2.37;2.17;;;;;;;;;;5071994;28;20289;-93
2022/12/22 14:51:26;;;;;;;1.50;1.40;;;;;;;;;;5073091;28;20210;-91
2022/12/22 14:53:55;;;;;;;1.53;1.30;;;;;;;;;;5083753;28;20210;-91
2022/12/22 14:56:24;;;;;;;1.30;1.20;;;;;;;;;;5073151;28;20260;-93
2022/12/22 14:58:51;;;;;;;1.33;1.23;;;;;;;;;;5079508;28;20209;-96
2022/12/22 15:01:21;;;;;;;1.47;1.40;;;;;;;;;;5081786;28;20226;-92
2022/12/22 15:04:00;;;;;;;1.73;1.60;;;;;;;;;;5077601;28;20255;-90
2022/12/22 15:06:37;;;;;;;2.63;1.50;;;;;;;;;;5079436;28;20207;-91
2022/12/22 15:09:24;;;;;;;3.47;1.77;;;;;;;;;;5086941;28;20198;-91
2022/12/22 15:11:53;;;;;;;2.40;2.20;;;;;;;;;;5075080;28;20210;-88
2022/12/22 15:14:21;;;;;;;2.83;2.07;;;;;;;;;;5071507;28;20262;-87
2022/12/22 15:16:49;;;;;;;5.03;2.63;;;;;;;;;;5072060;28;20199;-86
2022/12/22 15:19:21;;;;;;;9.77;2.77;;;;;;;;;;5073459;28;20285;-88
2022/12/22 15:21:48;;;;;;;5.37;2.40;;;;;;;;;;5076236;28;20203;-90
2022/12/22 15:24:18;;;;;;;4.40;2.40;;;;;;;;;;5078205;28;20218;-87
2022/12/22 15:26:46;;;;;;;9.27;3.13;;;;;;;;;;5075267;28;20191;-86
2022/12/22 15:29:13;;;;;;;8.33;3.07;;;;;;;;;;5076991;28;20261;-85
2022/12/22 15:31:41;;;;;;;6.73;2.93;;;;;;;;;;5070661;28;20275;-86
2022/12/22 15:34:12;;;;;;;11.00;3.00;;;;;;;;;;5067925;28;20222;-88
2022/12/22 15:36:41;;;;;;;11.43;3.00;;;;;;;;;;5077132;28;20199;-89
2022/12/22 15:39:13;;;;;;;9.07;3.07;;;;;;;;;;5068805;28;20249;-89
2022/12/22 15:41:40;;;;;;;15.03;3.77;;;;;;;;;;5073478;28;20210;-88
2022/12/22 15:44:08;;;;;;;10.70;4.40;;;;;;;;;;5078787;28;20269;-90
2022/12/22 15:46:36;;;;;;;13.43;4.27;;;;;;;;;;5073310;28;20207;-90
2022/12/22 15:49:03;;;;;;;9.03;3.30;;;;;;;;;;5069993;28;20201;-89
2022/12/22 15:51:32;;;;;;;8.50;3.00;;;;;;;;;;5067795;28;20210;-91
2022/12/22 15:54:01;;;;;;;8.73;4.20;;;;;;;;;;5075855;28;20205;-89
2022/12/22 15:56:32;;;;;;;12.57;4.20;;;;;;;;;;5066600;28;20200;-90
2022/12/22 15:58:59;;;;;;;20.13;4.53;;;;;;;;;;5065214;28;20248;-90
2022/12/22 16:01:27;;;;;;;18.63;4.67;;;;;;;;;;5075303;28;20218;-95
2022/12/22 16:06:36;;;;;;;23.37;4.80;;;;;;;;;;5090124;28;20266;-95
2022/12/22 16:09:10;;;;;;;25.87;5.40;;;;;;;;;;5092346;28;20199;-94
2022/12/22 16:11:38;;;;;;;27.27;5.33;;;;;;;;;;5089708;28;20199;-91
2022/12/22 16:19:32;;;;;;;30.37;6.00;;;;;;;;;;5091136;28;20214;-87
2022/12/22 16:22:04;;;;;;;36.83;6.27;;;;;;;;;;5088077;28;20268;-95
2022/12/22 16:24:35;;;;;;;31.23;5.90;;;;;;;;;;5092093;28;20238;-85
2022/12/22 16:27:06;;;;;;;31.73;5.90;;;;;;;;;;5093182;28;20190;-93
2022/12/22 16:29:33;;;;;;;28.13;5.93;;;;;;;;;;5094424;28;20230;-90
2022/12/22 16:32:14;;;;;;;29.60;6.40;;;;;;;;;;5092054;28;20210;-85
2022/12/22 16:37:26;;;;;;;38.53;7.37;;;;;;;;;;5069268;28;20213;-96
2022/12/22 16:45:26;;;;;;;33.67;6.63;;;;;;;;;;5081922;28;20223;-94
2022/12/22 16:53:10;;;;;;;38.93;7.60;;;;;;;;;;4986497;28;20214;-61
2022/12/22 16:55:39;;;;;;;31.93;6.33;;;;;;;;;;4988163;28;20205;-61
2022/12/22 16:58:06;;;;;;;32.10;5.97;;;;;;;;;;4983686;28;20217;-62
2022/12/22 17:00:36;;;;;;;37.13;7.30;;;;;;;;;;4988355;28;20250;-62
2022/12/22 17:03:06;;;;;;;34.90;7.63;;;;;;;;;;4992530;28;20210;-61
2022/12/22 17:05:36;;;;;;;36.90;8.13;;;;;;;;;;4990451;28;20202;-61
2022/12/22 17:08:04;;;;;;;31.43;5.60;;;;;;;;;;4998674;28;20217;-61
2022/12/22 17:10:31;;;;;;;35.07;6.93;;;;;;;;;;4984410;28;20206;-61
2022/12/22 17:13:01;;;;;;;36.30;6.50;;;;;;;;;;4987700;28;20209;-62
2022/12/22 17:15:28;;;;;;;35.80;6.73;;;;;;;;;;4987076;28;20281;-61
2022/12/22 17:17:56;;;;;;;35.83;6.87;;;;;;;;;;4987079;28;20213;-61
2022/12/22 17:20:24;;;;;;;29.87;6.40;;;;;;;;;;4989937;28;20213;-61
2022/12/22 17:22:53;;;;;;;35.63;6.93;;;;;;;;;;4990319;28;20213;-61
2022/12/22 17:25:21;;;;;;;35.23;6.80;;;;;;;;;;5005972;28;20240;-61
2022/12/22 17:27:49;;;;;;;35.47;6.90;;;;;;;;;;4985064;28;20212;-61
2022/12/22 17:30:19;;;;;;;33.97;6.63;;;;;;;;;;4984351;28;20216;-61
2022/12/22 17:32:46;;;;;;;36.10;7.70;;;;;;;;;;4985347;28;20206;-61
2022/12/22 17:35:14;;;;;;;38.07;6.33;;;;;;;;;;4987897;28;20202;-61
2022/12/22 17:37:42;;;;;;;37.37;7.13;;;;;;;;;;4990340;28;20221;-61
2022/12/22 17:40:12;;;;;;;43.73;7.10;;;;;;;;;;4990533;28;20209;-61
2022/12/22 17:42:39;;;;;;;35.30;7.57;;;;;;;;;;4986690;28;20213;-61
2022/12/22 17:45:12;;;;;;;32.67;6.63;;;;;;;;;;4980482;28;20235;-61
2022/12/22 17:47:41;;;;;;;32.67;6.77;;;;;;;;;;4980801;28;20202;-62
2022/12/22 17:50:11;;;;;;;36.07;6.73;;;;;;;;;;4986782;28;20208;-61
2022/12/22 17:52:39;;;;;;;37.43;7.17;;;;;;;;;;4983219;28;20233;-61
2022/12/22 17:55:07;;;;;;;38.33;7.40;;;;;;;;;;4986742;28;20204;-61
2022/12/22 17:57:36;;;;;;;39.07;7.43;;;;;;;;;;4985536;28;20213;-62
2022/12/22 18:00:03;;;;;;;42.73;7.53;;;;;;;;;;4991313;28;20205;-61
2022/12/22 18:02:30;;;;;;;33.13;6.37;;;;;;;;;;4985456;28;20210;-60
2022/12/22 18:04:59;;;;;;;36.87;6.60;;;;;;;;;;4983227;28;20226;-61
2022/12/22 18:07:26;;;;;;;32.53;6.70;;;;;;;;;;4983286;28;20213;-61
2022/12/22 18:09:56;;;;;;;29.77;6.43;;;;;;;;;;4983355;28;20206;-61
2022/12/22 18:12:24;;;;;;;38.07;6.47;;;;;;;;;;4981249;28;20289;-61
2022/12/22 18:14:52;;;;;;;29.57;6.93;;;;;;;;;;4984184;28;20239;-61
2022/12/22 18:17:22;;;;;;;27.97;5.70;;;;;;;;;;4983171;28;20205;-61
2022/12/22 18:19:50;;;;;;;26.73;5.63;;;;;;;;;;4987190;28;20210;-61
2022/12/22 18:22:20;;;;;;;25.13;5.33;;;;;;;;;;4989328;28;20202;-61
2022/12/22 18:24:47;;;;;;;24.90;5.23;;;;;;;;;;4983487;28;20230;-61
2022/12/22 18:27:15;;;;;;;27.00;5.33;;;;;;;;;;4983758;28;20213;-61
2022/12/22 18:29:42;;;;;;;24.70;4.97;;;;;;;;;;4982386;28;20395;-62
2022/12/22 18:32:10;;;;;;;22.83;5.10;;;;;;;;;;4980192;28;20225;-61
2022/12/22 18:34:37;;;;;;;22.60;5.40;;;;;;;;;;4984736;28;20202;-61
2022/12/22 18:37:05;;;;;;;22.30;4.53;;;;;;;;;;4981274;28;20211;-62
2022/12/22 18:39:35;;;;;;;23.40;4.90;;;;;;;;;;4984273;28;20206;-62
2022/12/22 18:42:03;;;;;;;16.67;4.47;;;;;;;;;;4986893;28;20203;-62
2022/12/22 18:44:30;;;;;;;18.47;4.43;;;;;;;;;;4984492;28;20300;-62
2022/12/22 18:46:57;;;;;;;15.57;3.60;;;;;;;;;;4987546;28;20207;-62
2022/12/22 18:49:24;;;;;;;20.27;4.53;;;;;;;;;;4992515;28;20216;-61
2022/12/22 18:51:51;;;;;;;16.97;4.37;;;;;;;;;;5004217;28;20242;-61
2022/12/22 18:54:23;;;;;;;16.53;4.10;;;;;;;;;;4985330;28;20212;-61
2022/12/22 18:56:51;;;;;;;18.13;3.90;;;;;;;;;;4980388;28;20210;-61
2022/12/22 18:59:23;;;;;;;17.73;3.87;;;;;;;;;;4985445;28;20201;-62